sensor_id;sensor_type;location;lat;lon;timestamp;pressure;altitude;pressure_sealevel;temperature;humidity
52343;BME280;38277;51.972;4.624;2023-03-19T00:08:49;101210.0;;;12.4;89.5
52343;BME280;38277;51.972;4.624;2023-03-19T00:13:28;101210.0;;;12.4;89.5
52343;BME280;38277;51.972;4.624;2023-03-19T00:17:37;101220.0;;;12.4;90.0
52343;BME280;38277;51.972;4.624;2023-03-19T00:22:09;101220.0;;;12.3;89.5
52343;BME280;38277;51.972;4.624;2023-03-19T00:26:57;101220.0;;;12.3;90.0
52343;BME280;38277;51.972;4.624;2023-03-19T00:31:16;101220.0;;;12.3;90.0
52343;BME280;38277;51.972;4.624;2023-03-19T00:35:37;101220.0;;;12.3;90.0
52343;BME280;38277;51.972;4.624;2023-03-19T00:40:31;101230.0;;;12.2;90.0
52343;BME280;38277;51.972;4.624;2023-03-19T00:44:43;101230.0;;;12.2;89.5
52343;BME280;38277;51.972;4.624;2023-03-19T00:49:05;101240.0;;;12.1;90.0
52343;BME280;38277;51.972;4.624;2023-03-19T00:53:32;101240.0;;;12.0;90.0
52343;BME280;38277;51.972;4.624;2023-03-19T00:58:25;101240.0;;;12.0;90.0
52343;BME280;38277;51.972;4.624;2023-03-19T01:07:31;101230.0;;;11.9;90.5
52343;BME280;38277;51.972;4.624;2023-03-19T01:11:57;101240.0;;;11.9;90.5
52343;BME280;38277;51.972;4.624;2023-03-19T01:16:31;101230.0;;;11.9;90.5
52343;BME280;38277;51.972;4.624;2023-03-19T01:20:39;101240.0;;;11.9;90.5
52343;BME280;38277;51.972;4.624;2023-03-19T01:29:34;101240.0;;;11.9;91.0
52343;BME280;38277;51.972;4.624;2023-03-19T01:34:27;101240.0;;;12.0;90.5
52343;BME280;38277;51.972;4.624;2023-03-19T01:43:24;101240.0;;;11.8;89.0
52343;BME280;38277;51.972;4.624;2023-03-19T01:47:34;101250.0;;;11.7;89.0
52343;BME280;38277;51.972;4.624;2023-03-19T01:52:14;101240.0;;;11.6;89.0
52343;BME280;38277;51.972;4.624;2023-03-19T01:56:33;101260.0;;;11.5;88.5
52343;BME280;38277;51.972;4.624;2023-03-19T02:01:08;101250.0;;;11.4;88.5
52343;BME280;38277;51.972;4.624;2023-03-19T02:05:32;101250.0;;;11.3;88.5
52343;BME280;38277;51.972;4.624;2023-03-19T02:10:05;101250.0;;;11.3;88.5
52343;BME280;38277;51.972;4.624;2023-03-19T02:19:13;101260.0;;;11.2;89.0
52343;BME280;38277;51.972;4.624;2023-03-19T02:23:38;101250.0;;;11.2;89.5
52343;BME280;38277;51.972;4.624;2023-03-19T02:37:29;101260.0;;;11.1;89.5
52343;BME280;38277;51.972;4.624;2023-03-19T02:41:52;101260.0;;;11.2;90.0
52343;BME280;38277;51.972;4.624;2023-03-19T02:46:22;101260.0;;;11.2;90.0
52343;BME280;38277;51.972;4.624;2023-03-19T02:55:09;101270.0;;;11.2;90.0
52343;BME280;38277;51.972;4.624;2023-03-19T02:59:34;101270.0;;;11.2;90.0
52343;BME280;38277;51.972;4.624;2023-03-19T03:17:40;101260.0;;;11.0;88.5
52343;BME280;38277;51.972;4.624;2023-03-19T03:22:15;101260.0;;;11.0;88.5
52343;BME280;38277;51.972;4.624;2023-03-19T03:31:11;101270.0;;;11.0;88.5
52343;BME280;38277;51.972;4.624;2023-03-19T03:35:56;101260.0;;;10.9;88.5
52343;BME280;38277;51.972;4.624;2023-03-19T03:44:43;101250.0;;;11.0;88.5
52343;BME280;38277;51.972;4.624;2023-03-19T03:53:48;101250.0;;;10.9;88.0
52343;BME280;38277;51.972;4.624;2023-03-19T03:58:13;101250.0;;;10.8;88.0
52343;BME280;38277;51.972;4.624;2023-03-19T04:07:30;101270.0;;;10.7;88.0
52343;BME280;38277;51.972;4.624;2023-03-19T04:11:50;101280.0;;;10.6;88.0
52343;BME280;38277;51.972;4.624;2023-03-19T04:20:42;101280.0;;;10.5;88.0
52343;BME280;38277;51.972;4.624;2023-03-19T04:25:16;101280.0;;;10.5;88.5
52343;BME280;38277;51.972;4.624;2023-03-19T04:29:54;101280.0;;;10.5;88.5
52343;BME280;38277;51.972;4.624;2023-03-19T04:34:05;101280.0;;;10.5;88.5
52343;BME280;38277;51.972;4.624;2023-03-19T04:43:14;101300.0;;;10.4;88.5
52343;BME280;38277;51.972;4.624;2023-03-19T04:47:41;101300.0;;;10.3;89.0
52343;BME280;38277;51.972;4.624;2023-03-19T05:01:02;101310.0;;;10.3;90.0
52343;BME280;38277;51.972;4.624;2023-03-19T05:05:31;101310.0;;;10.3;90.0
52343;BME280;38277;51.972;4.624;2023-03-19T05:10:02;101310.0;;;10.4;90.0
52343;BME280;38277;51.972;4.624;2023-03-19T05:19:28;101320.0;;;10.4;89.5
52343;BME280;38277;51.972;4.624;2023-03-19T05:23:57;101330.0;;;10.3;89.5
52343;BME280;38277;51.972;4.624;2023-03-19T05:28:17;101340.0;;;10.3;89.5
52343;BME280;38277;51.972;4.624;2023-03-19T05:32:48;101350.0;;;10.2;90.0
52343;BME280;38277;51.972;4.624;2023-03-19T05:41:37;101360.0;;;10.2;90.5
52343;BME280;38277;51.972;4.624;2023-03-19T05:46:19;101360.0;;;10.1;91.0
52343;BME280;38277;51.972;4.624;2023-03-19T05:55:27;101380.0;;;10.1;90.5
52343;BME280;38277;51.972;4.624;2023-03-19T05:59:41;101390.0;;;10.0;91.0
52343;BME280;38277;51.972;4.624;2023-03-19T06:17:54;101380.0;;;10.0;91.5
52343;BME280;38277;51.972;4.624;2023-03-19T06:22:27;101390.0;;;10.0;92.0
52343;BME280;38277;51.972;4.624;2023-03-19T06:31:29;101400.0;;;10.0;92.0
52343;BME280;38277;51.972;4.624;2023-03-19T06:35:34;101410.0;;;10.0;92.0
52343;BME280;38277;51.972;4.624;2023-03-19T06:40:17;101410.0;;;10.0;92.0
52343;BME280;38277;51.972;4.624;2023-03-19T06:49:22;101410.0;;;10.2;92.5
52343;BME280;38277;51.972;4.624;2023-03-19T06:53:46;101410.0;;;10.3;92.0
52343;BME280;38277;51.972;4.624;2023-03-19T06:58:25;101420.0;;;10.4;92.0
52343;BME280;38277;51.972;4.624;2023-03-19T07:07:09;101440.0;;;10.8;91.5
52343;BME280;38277;51.972;4.624;2023-03-19T07:11:49;101450.0;;;10.8;90.5
52343;BME280;38277;51.972;4.624;2023-03-19T07:16:30;101440.0;;;10.8;90.5
52343;BME280;38277;51.972;4.624;2023-03-19T07:20:59;101450.0;;;10.9;90.0
52343;BME280;38277;51.972;4.624;2023-03-19T07:25:03;101450.0;;;11.0;90.0
52343;BME280;38277;51.972;4.624;2023-03-19T07:29:33;101440.0;;;11.0;89.5
52343;BME280;38277;51.972;4.624;2023-03-19T07:34:19;101440.0;;;11.2;89.5
52343;BME280;38277;51.972;4.624;2023-03-19T07:43:13;101460.0;;;11.5;88.0
52343;BME280;38277;51.972;4.624;2023-03-19T07:47:34;101470.0;;;11.5;87.5
52343;BME280;38277;51.972;4.624;2023-03-19T08:01:13;101480.0;;;11.4;86.5
52343;BME280;38277;51.972;4.624;2023-03-19T08:05:50;101480.0;;;11.4;87.0
52343;BME280;38277;51.972;4.624;2023-03-19T08:10:11;101480.0;;;11.5;87.0
52343;BME280;38277;51.972;4.624;2023-03-19T08:19:23;101500.0;;;11.5;86.0
52343;BME280;38277;51.972;4.624;2023-03-19T08:23:35;101510.0;;;11.4;86.0
52343;BME280;38277;51.972;4.624;2023-03-19T08:28:07;101510.0;;;11.3;86.0
52343;BME280;38277;51.972;4.624;2023-03-19T08:32:50;101520.0;;;11.3;86.0
52343;BME280;38277;51.972;4.624;2023-03-19T08:37:16;101510.0;;;11.2;86.0
52343;BME280;38277;51.972;4.624;2023-03-19T08:41:38;101530.0;;;11.1;86.5
52343;BME280;38277;51.972;4.624;2023-03-19T08:46:26;101530.0;;;11.3;87.5
52343;BME280;38277;51.972;4.624;2023-03-19T08:55:14;101530.0;;;11.4;86.0
52343;BME280;38277;51.972;4.624;2023-03-19T08:59:58;101540.0;;;11.5;86.0
52343;BME280;38277;51.972;4.624;2023-03-19T09:04:13;101550.0;;;11.5;86.0
52343;BME280;38277;51.972;4.624;2023-03-19T09:08:41;101550.0;;;11.6;85.5
52343;BME280;38277;51.972;4.624;2023-03-19T09:13:11;101550.0;;;11.6;84.5
52343;BME280;38277;51.972;4.624;2023-03-19T09:17:52;101550.0;;;11.6;84.5
52343;BME280;38277;51.972;4.624;2023-03-19T09:22:12;101560.0;;;11.6;84.5
52343;BME280;38277;51.972;4.624;2023-03-19T09:31:22;101560.0;;;11.8;84.0
52343;BME280;38277;51.972;4.624;2023-03-19T09:36:00;101560.0;;;12.0;84.0
52343;BME280;38277;51.972;4.624;2023-03-19T09:40:21;101550.0;;;12.0;83.0
52343;BME280;38277;51.972;4.624;2023-03-19T09:49:15;101580.0;;;12.1;83.0
52343;BME280;38277;51.972;4.624;2023-03-19T09:54:03;101590.0;;;12.2;83.0
52343;BME280;38277;51.972;4.624;2023-03-19T09:58:09;101600.0;;;12.3;82.5
52343;BME280;38277;51.972;4.624;2023-03-19T10:07:11;101610.0;;;12.1;82.0
52343;BME280;38277;51.972;4.624;2023-03-19T10:12:43;101610.0;;;12.1;82.0
52343;BME280;38277;51.972;4.624;2023-03-19T10:20:57;101620.0;;;12.3;82.5
52343;BME280;38277;51.972;4.624;2023-03-19T10:25:30;101620.0;;;12.4;82.0
52343;BME280;38277;51.972;4.624;2023-03-19T10:29:48;101630.0;;;12.4;82.0
52343;BME280;38277;51.972;4.624;2023-03-19T10:34:10;101630.0;;;12.4;81.5
52343;BME280;38277;51.972;4.624;2023-03-19T10:43:24;101640.0;;;12.4;81.5
52343;BME280;38277;51.972;4.624;2023-03-19T10:47:42;101650.0;;;12.5;81.0
52343;BME280;38277;51.972;4.624;2023-03-19T10:52:16;101640.0;;;12.5;81.0
52343;BME280;38277;51.972;4.624;2023-03-19T10:56:59;101650.0;;;12.5;81.0
52343;BME280;38277;51.972;4.624;2023-03-19T11:01:14;101650.0;;;12.5;81.0
52343;BME280;38277;51.972;4.624;2023-03-19T11:06:16;101660.0;;;12.5;80.5
52343;BME280;38277;51.972;4.624;2023-03-19T11:10:13;101640.0;;;12.5;81.0
52343;BME280;38277;51.972;4.624;2023-03-19T11:24:00;101660.0;;;13.0;79.5
52343;BME280;38277;51.972;4.624;2023-03-19T11:28:16;101650.0;;;13.1;79.5
52343;BME280;38277;51.972;4.624;2023-03-19T11:33:52;101650.0;;;13.2;79.0
52343;BME280;38277;51.972;4.624;2023-03-19T11:37:53;101650.0;;;13.3;78.5
52343;BME280;38277;51.972;4.624;2023-03-19T11:41:57;101650.0;;;13.5;78.0
52343;BME280;38277;51.972;4.624;2023-03-19T11:46:50;101650.0;;;13.6;77.5
52343;BME280;38277;51.972;4.624;2023-03-19T11:55:40;101670.0;;;14.1;75.5
52343;BME280;38277;51.972;4.624;2023-03-19T12:00:11;101650.0;;;14.3;75.0
52343;BME280;38277;51.972;4.624;2023-03-19T12:05:31;101660.0;;;15.4;72.0
52343;BME280;38277;51.972;4.624;2023-03-19T12:09:52;101660.0;;;16.1;67.0
52343;BME280;38277;51.972;4.624;2023-03-19T12:14:11;101670.0;;;15.8;66.5
52343;BME280;38277;51.972;4.624;2023-03-19T12:20:02;101670.0;;;15.4;67.0
52343;BME280;38277;51.972;4.624;2023-03-19T12:26:13;101660.0;;;15.0;68.5
52343;BME280;38277;51.972;4.624;2023-03-19T12:33:08;101650.0;;;16.3;66.5
52343;BME280;38277;51.972;4.624;2023-03-19T12:37:21;101650.0;;;17.4;63.5
52343;BME280;38277;51.972;4.624;2023-03-19T12:45:02;101650.0;;;20.4;54.0
52343;BME280;38277;51.972;4.624;2023-03-19T12:51:05;101650.0;;;20.8;49.5
52343;BME280;38277;51.972;4.624;2023-03-19T12:58:37;101650.0;;;19.5;51.5
52343;BME280;38277;51.972;4.624;2023-03-19T13:04:19;101660.0;;;18.8;53.5
52343;BME280;38277;51.972;4.624;2023-03-19T13:12:00;101680.0;;;17.7;56.5
52343;BME280;38277;51.972;4.624;2023-03-19T13:18:13;101680.0;;;17.3;57.0
52343;BME280;38277;51.972;4.624;2023-03-19T13:25:13;101700.0;;;16.2;59.0
52343;BME280;38277;51.972;4.624;2023-03-19T13:31:22;101680.0;;;15.8;60.5
52343;BME280;38277;51.972;4.624;2023-03-19T13:37:18;101680.0;;;15.5;61.5
52343;BME280;38277;51.972;4.624;2023-03-19T13:43:51;101690.0;;;15.2;62.5
52343;BME280;38277;51.972;4.624;2023-03-19T13:49:31;101690.0;;;15.0;63.5
52343;BME280;38277;51.972;4.624;2023-03-19T13:57:15;101700.0;;;14.8;63.5
52343;BME280;38277;51.972;4.624;2023-03-19T14:03:04;101690.0;;;14.7;64.0
52343;BME280;38277;51.972;4.624;2023-03-19T14:10:31;101700.0;;;14.7;65.0
52343;BME280;38277;51.972;4.624;2023-03-19T14:16:35;101710.0;;;14.8;64.5
52343;BME280;38277;51.972;4.624;2023-03-19T14:23:53;101720.0;;;14.6;65.5
52343;BME280;38277;51.972;4.624;2023-03-19T14:29:53;101730.0;;;14.4;66.5
52343;BME280;38277;51.972;4.624;2023-03-19T14:40:10;101720.0;;;14.0;68.5
52343;BME280;38277;51.972;4.624;2023-03-19T14:43:12;101710.0;;;13.8;69.5
52343;BME280;38277;51.972;4.624;2023-03-19T14:53:52;101730.0;;;13.7;70.0
52343;BME280;38277;51.972;4.624;2023-03-19T14:56:40;101740.0;;;13.5;70.5
52343;BME280;38277;51.972;4.624;2023-03-19T15:04:29;101760.0;;;13.1;71.5
52343;BME280;38277;51.972;4.624;2023-03-19T15:10:40;101760.0;;;13.0;72.0
52343;BME280;38277;51.972;4.624;2023-03-19T15:17:39;101780.0;;;12.8;71.5
52343;BME280;38277;51.972;4.624;2023-03-19T15:23:44;101780.0;;;12.8;71.0
52343;BME280;38277;51.972;4.624;2023-03-19T15:31:42;101760.0;;;12.8;71.5
52343;BME280;38277;51.972;4.624;2023-03-19T15:37:35;101750.0;;;13.0;70.5
52343;BME280;38277;51.972;4.624;2023-03-19T15:48:02;101760.0;;;13.1;70.0
52343;BME280;38277;51.972;4.624;2023-03-19T15:51:07;101770.0;;;13.1;70.0
52343;BME280;38277;51.972;4.624;2023-03-19T15:58:22;101770.0;;;13.2;69.5
52343;BME280;38277;51.972;4.624;2023-03-19T16:04:23;101780.0;;;13.2;69.0
52343;BME280;38277;51.972;4.624;2023-03-19T16:11:45;101810.0;;;13.1;69.0
52343;BME280;38277;51.972;4.624;2023-03-19T16:17:47;101820.0;;;13.1;69.5
52343;BME280;38277;51.972;4.624;2023-03-19T16:25:30;101830.0;;;12.9;70.0
52343;BME280;38277;51.972;4.624;2023-03-19T16:31:42;101830.0;;;12.8;71.0
52343;BME280;38277;51.972;4.624;2023-03-19T16:38:53;101860.0;;;12.6;72.5
52343;BME280;38277;51.972;4.624;2023-03-19T16:44:53;101860.0;;;12.4;73.5
52343;BME280;38277;51.972;4.624;2023-03-19T16:55:14;101870.0;;;12.0;75.5
52343;BME280;38277;51.972;4.624;2023-03-19T16:58:13;101880.0;;;11.8;76.5
52343;BME280;38277;51.972;4.624;2023-03-19T17:05:46;101900.0;;;11.6;79.0
52343;BME280;38277;51.972;4.624;2023-03-19T17:11:49;101910.0;;;11.5;79.5
52343;BME280;38277;51.972;4.624;2023-03-19T17:17:50;101920.0;;;11.4;80.5
52343;BME280;38277;51.972;4.624;2023-03-19T17:23:53;101930.0;;;11.2;82.0
52343;BME280;38277;51.972;4.624;2023-03-19T17:29:56;101930.0;;;11.2;82.5
52343;BME280;38277;51.972;4.624;2023-03-19T17:37:30;101950.0;;;11.1;83.0
52343;BME280;38277;51.972;4.624;2023-03-19T17:43:32;101960.0;;;11.1;83.0
52343;BME280;38277;51.972;4.624;2023-03-19T17:50:47;101970.0;;;11.1;83.0
52343;BME280;38277;51.972;4.624;2023-03-19T17:56:49;101970.0;;;11.0;83.0
52343;BME280;38277;51.972;4.624;2023-03-19T18:04:22;101980.0;;;10.9;84.0
52343;BME280;38277;51.972;4.624;2023-03-19T18:10:26;101990.0;;;10.8;84.0
52343;BME280;38277;51.972;4.624;2023-03-19T18:21:00;102000.0;;;10.6;84.5
52343;BME280;38277;51.972;4.624;2023-03-19T18:24:01;102010.0;;;10.5;85.0
52343;BME280;38277;51.972;4.624;2023-03-19T18:31:24;102030.0;;;10.4;85.5
52343;BME280;38277;51.972;4.624;2023-03-19T18:37:24;102040.0;;;10.4;85.5
52343;BME280;38277;51.972;4.624;2023-03-19T18:44:53;102040.0;;;10.4;85.0
52343;BME280;38277;51.972;4.624;2023-03-19T18:50:55;102040.0;;;10.4;85.0
52343;BME280;38277;51.972;4.624;2023-03-19T19:04:30;102060.0;;;10.2;85.0
52343;BME280;38277;51.972;4.624;2023-03-19T19:12:02;102050.0;;;10.1;85.5
52343;BME280;38277;51.972;4.624;2023-03-19T19:18:12;102060.0;;;10.1;86.0
52343;BME280;38277;51.972;4.624;2023-03-19T19:25:22;102070.0;;;10.1;86.5
52343;BME280;38277;51.972;4.624;2023-03-19T19:31:31;102060.0;;;10.1;86.5
52343;BME280;38277;51.972;4.624;2023-03-19T19:38:41;102070.0;;;10.2;86.5
52343;BME280;38277;51.972;4.624;2023-03-19T19:44:48;102080.0;;;10.2;86.5
52343;BME280;38277;51.972;4.624;2023-03-19T19:52:28;102090.0;;;10.2;86.0
52343;BME280;38277;51.972;4.624;2023-03-19T19:58:31;102100.0;;;10.1;86.0
52343;BME280;38277;51.972;4.624;2023-03-19T20:06:00;102100.0;;;10.2;85.5
52343;BME280;38277;51.972;4.624;2023-03-19T20:10:10;102100.0;;;10.2;85.0
52343;BME280;38277;51.972;4.624;2023-03-19T20:14:41;102100.0;;;10.1;85.5
52343;BME280;38277;51.972;4.624;2023-03-19T20:19:31;102110.0;;;10.2;85.0
52343;BME280;38277;51.972;4.624;2023-03-19T20:28:32;102130.0;;;10.1;84.5
52343;BME280;38277;51.972;4.624;2023-03-19T20:33:01;102120.0;;;10.1;84.5
52343;BME280;38277;51.972;4.624;2023-03-19T20:37:23;102130.0;;;10.1;84.5
52343;BME280;38277;51.972;4.624;2023-03-19T20:41:59;102120.0;;;10.0;84.5
52343;BME280;38277;51.972;4.624;2023-03-19T20:46:26;102130.0;;;10.0;84.5
52343;BME280;38277;51.972;4.624;2023-03-19T20:50:48;102130.0;;;10.0;84.5
52343;BME280;38277;51.972;4.624;2023-03-19T20:55:24;102120.0;;;10.0;84.5
52343;BME280;38277;51.972;4.624;2023-03-19T21:04:25;102120.0;;;10.0;84.0
52343;BME280;38277;51.972;4.624;2023-03-19T21:08:39;102120.0;;;10.0;84.0
52343;BME280;38277;51.972;4.624;2023-03-19T21:13:11;102110.0;;;10.0;83.5
52343;BME280;38277;51.972;4.624;2023-03-19T21:17:54;102120.0;;;10.0;84.0
52343;BME280;38277;51.972;4.624;2023-03-19T21:22:11;102110.0;;;10.0;84.0
52343;BME280;38277;51.972;4.624;2023-03-19T21:28:15;102120.0;;;10.0;84.0
52343;BME280;38277;51.972;4.624;2023-03-19T21:31:14;102110.0;;;10.1;84.0
52343;BME280;38277;51.972;4.624;2023-03-19T21:35:48;102120.0;;;10.1;84.0
52343;BME280;38277;51.972;4.624;2023-03-19T21:40:29;102120.0;;;10.1;83.5
52343;BME280;38277;51.972;4.624;2023-03-19T21:46:22;102120.0;;;10.1;83.5
52343;BME280;38277;51.972;4.624;2023-03-19T21:49:11;102120.0;;;10.1;83.5
52343;BME280;38277;51.972;4.624;2023-03-19T21:53:49;102120.0;;;10.1;83.5
52343;BME280;38277;51.972;4.624;2023-03-19T21:58:28;102120.0;;;10.1;83.5
52343;BME280;38277;51.972;4.624;2023-03-19T22:04:15;102110.0;;;10.1;83.0
52343;BME280;38277;51.972;4.624;2023-03-19T22:07:11;102120.0;;;10.1;83.0
52343;BME280;38277;51.972;4.624;2023-03-19T22:11:38;102120.0;;;10.1;82.5
52343;BME280;38277;51.972;4.624;2023-03-19T22:16:02;102130.0;;;10.1;82.5
52343;BME280;38277;51.972;4.624;2023-03-19T22:22:26;102140.0;;;10.2;82.0
52343;BME280;38277;51.972;4.624;2023-03-19T22:25:33;102140.0;;;10.2;81.5
52343;BME280;38277;51.972;4.624;2023-03-19T22:29:40;102140.0;;;10.2;81.0
52343;BME280;38277;51.972;4.624;2023-03-19T22:34:29;102150.0;;;10.2;81.0
52343;BME280;38277;51.972;4.624;2023-03-19T22:40:37;102140.0;;;10.2;80.0
52343;BME280;38277;51.972;4.624;2023-03-19T22:43:15;102150.0;;;10.2;80.0
52343;BME280;38277;51.972;4.624;2023-03-19T22:47:44;102160.0;;;10.2;79.5
52343;BME280;38277;51.972;4.624;2023-03-19T22:52:17;102160.0;;;10.2;79.5
52343;BME280;38277;51.972;4.624;2023-03-19T22:58:23;102150.0;;;10.2;79.0
52343;BME280;38277;51.972;4.624;2023-03-19T23:01:32;102170.0;;;10.2;79.0
